Time;durP1;ratioP1;P1;durP2;ratioP2;P2;SDS_P1;SDS_P2;PMS_P1;PMS_P2;Temp;Humidity;BMP_temperature;BMP_pressure;BME280_temperature;BME280_humidity;BME280_pressure;Samples;Min_cycle;Max_cycle;Signal;HPM_P1;HPM_P2
2021/08/06 00:01:41;;;;;;;0.73;0.73;;;16.60;99.90;;;;;;4952045;28;20641;-96
2021/08/06 00:04:08;;;;;;;1.30;0.87;;;16.60;99.90;;;;;;4953286;29;20708;-95
2021/08/06 00:06:36;;;;;;;1.53;1.13;;;16.60;99.90;;;;;;4944514;29;20635;-95
2021/08/06 00:09:04;;;;;;;0.97;0.87;;;16.60;99.90;;;;;;4945784;29;21031;-96
2021/08/06 00:11:32;;;;;;;1.60;0.80;;;16.60;99.90;;;;;;4945368;29;20649;-96
2021/08/06 00:13:59;;;;;;;1.30;0.90;;;16.50;99.90;;;;;;4938274;29;20659;-96
2021/08/06 00:16:26;;;;;;;3.23;0.80;;;16.50;99.90;;;;;;4941276;29;20642;-95
2021/08/06 00:18:53;;;;;;;1.00;0.70;;;16.40;99.90;;;;;;4937014;29;20734;-94
2021/08/06 00:21:21;;;;;;;4.47;1.10;;;16.40;99.90;;;;;;4943569;29;20642;-95
2021/08/06 00:23:49;;;;;;;1.43;0.80;;;16.40;99.90;;;;;;4945057;29;20647;-95
2021/08/06 00:26:16;;;;;;;1.20;1.10;;;16.30;99.90;;;;;;4946703;29;20615;-94
2021/08/06 00:28:46;;;;;;;1.00;0.80;;;16.30;99.90;;;;;;4941446;29;20724;-94
2021/08/06 00:31:13;;;;;;;0.93;0.83;;;16.20;99.90;;;;;;4941509;29;20642;-95
2021/08/06 00:33:41;;;;;;;1.23;1.07;;;16.20;99.90;;;;;;4948259;29;20609;-93
2021/08/06 00:36:08;;;;;;;2.47;0.77;;;16.20;99.90;;;;;;4941944;29;21077;-93
2021/08/06 00:38:38;;;;;;;1.10;1.00;;;16.20;99.90;;;;;;4943794;29;21590;-94
2021/08/06 00:41:06;;;;;;;2.13;1.00;;;16.20;99.90;;;;;;4944764;29;20752;-94
2021/08/06 00:43:33;;;;;;;3.03;1.00;;;16.20;99.90;;;;;;4944933;29;20629;-93
2021/08/06 00:46:02;;;;;;;1.00;1.00;;;16.20;99.90;;;;;;4942333;29;20670;-94
2021/08/06 00:48:29;;;;;;;1.07;0.80;;;16.10;99.90;;;;;;4943224;29;20678;-95
2021/08/06 00:50:57;;;;;;;1.00;0.90;;;16.00;99.90;;;;;;4941303;29;21417;-95
2021/08/06 00:53:24;;;;;;;1.30;1.00;;;16.10;99.90;;;;;;4941096;29;20634;-95
2021/08/06 00:55:52;;;;;;;1.10;1.00;;;16.00;99.90;;;;;;4942667;29;20631;-94
2021/08/06 00:58:20;;;;;;;1.10;1.00;;;15.90;99.90;;;;;;4941436;29;20677;-95
2021/08/06 01:00:48;;;;;;;1.00;1.00;;;15.90;99.90;;;;;;4937890;29;20628;-94
2021/08/06 01:03:20;;;;;;;1.10;0.80;;;15.90;99.90;;;;;;4940373;29;20755;-95
2021/08/06 01:05:57;;;;;;;2.60;1.00;;;15.90;99.90;;;;;;4936532;29;20631;-95
2021/08/06 01:08:32;;;;;;;2.80;1.10;;;15.80;99.90;;;;;;4936809;29;20686;-96
2021/08/06 01:11:03;;;;;;;1.77;1.20;;;15.80;99.90;;;;;;4945093;29;20645;-96
2021/08/06 01:13:33;;;;;;;1.03;0.90;;;15.80;99.90;;;;;;4941364;28;20651;-95
2021/08/06 01:16:05;;;;;;;1.20;1.00;;;15.90;99.90;;;;;;4942429;29;20650;-96
2021/08/06 01:18:33;;;;;;;2.73;0.93;;;15.80;99.90;;;;;;4944044;28;20665;-96
2021/08/06 01:21:09;;;;;;;5.90;1.10;;;15.80;99.90;;;;;;4944006;29;20634;-96
2021/08/06 01:23:38;;;;;;;1.17;0.80;;;15.80;99.90;;;;;;4944833;29;20698;-96
2021/08/06 01:26:09;;;;;;;1.50;1.03;;;15.80;99.90;;;;;;4940163;29;20641;-95
2021/08/06 01:28:38;;;;;;;0.93;0.83;;;15.80;99.90;;;;;;4940752;29;20677;-95
2021/08/06 01:31:07;;;;;;;1.13;0.97;;;15.80;99.90;;;;;;4944019;29;20651;-95
2021/08/06 01:33:34;;;;;;;1.00;0.90;;;15.80;99.90;;;;;;4941076;29;20643;-95
2021/08/06 01:36:02;;;;;;;1.60;1.00;;;15.90;99.90;;;;;;4939521;29;20646;-95
2021/08/06 01:38:29;;;;;;;1.30;1.20;;;15.90;99.90;;;;;;4938402;29;20668;-95
2021/08/06 01:41:11;;;;;;;2.57;1.10;;;15.90;99.90;;;;;;4939397;28;20643;-95
2021/08/06 01:43:46;;;;;;;1.03;0.77;;;15.80;99.90;;;;;;4945335;29;20646;-93
2021/08/06 01:46:18;;;;;;;3.83;1.27;;;15.80;99.90;;;;;;4939533;29;20595;-94
2021/08/06 01:48:49;;;;;;;1.47;1.00;;;15.80;99.90;;;;;;4936012;29;21233;-96
2021/08/06 01:51:24;;;;;;;1.50;0.93;;;15.80;99.90;;;;;;4942973;29;20643;-95
2021/08/06 01:53:54;;;;;;;1.37;0.90;;;15.80;99.90;;;;;;4942246;29;20641;-95
2021/08/06 01:56:24;;;;;;;0.83;0.83;;;15.80;99.90;;;;;;4940866;29;20735;-95
2021/08/06 01:58:55;;;;;;;3.47;1.30;;;15.80;99.90;;;;;;4940901;29;20663;-93
2021/08/06 02:01:24;;;;;;;1.10;1.00;;;15.80;99.90;;;;;;4937844;29;21090;-93
2021/08/06 02:03:51;;;;;;;1.30;1.20;;;15.80;99.90;;;;;;4943381;29;20659;-96
2021/08/06 02:06:18;;;;;;;1.10;0.90;;;15.70;99.90;;;;;;4941634;29;20639;-94
2021/08/06 02:08:49;;;;;;;4.93;1.27;;;15.70;99.90;;;;;;4968732;28;20686;-96
2021/08/06 02:11:24;;;;;;;2.87;1.30;;;15.70;99.90;;;;;;4963587;29;20733;-96
2021/08/06 02:13:52;;;;;;;2.00;1.00;;;15.80;99.90;;;;;;4947804;29;20733;-95
2021/08/06 02:16:25;;;;;;;1.70;1.30;;;15.80;99.90;;;;;;4940945;29;20642;-90
2021/08/06 02:18:54;;;;;;;1.23;0.83;;;15.80;99.90;;;;;;4936534;28;20651;-95
2021/08/06 02:21:30;;;;;;;1.90;1.20;;;15.70;99.90;;;;;;4939197;29;20645;-94
2021/08/06 02:24:02;;;;;;;1.20;1.07;;;15.80;99.90;;;;;;4932947;29;20666;-92
2021/08/06 02:26:32;;;;;;;2.37;1.20;;;15.80;99.90;;;;;;4941877;29;20587;-94
2021/08/06 02:29:00;;;;;;;1.70;1.10;;;15.80;99.90;;;;;;4939673;29;20666;-94
2021/08/06 02:31:28;;;;;;;1.30;1.20;;;15.90;99.90;;;;;;4937225;29;20639;-93
2021/08/06 02:34:03;;;;;;;3.37;1.20;;;15.90;99.90;;;;;;4943610;29;21037;-95
2021/08/06 02:36:31;;;;;;;1.17;1.07;;;16.00;99.90;;;;;;4936268;29;20630;-94
2021/08/06 03:07:47;;;;;;;1.23;1.13;;;16.20;99.90;;;;;;5680880;23;20726;-96
2021/08/06 03:10:18;;;;;;;1.43;1.10;;;16.30;99.90;;;;;;4945782;29;20672;-95
2021/08/06 03:12:45;;;;;;;1.73;1.30;;;16.20;99.90;;;;;;4933418;29;20656;-96
2021/08/06 03:15:13;;;;;;;2.60;1.70;;;16.30;99.90;;;;;;4920609;29;20628;-94
2021/08/06 03:17:41;;;;;;;1.67;1.57;;;16.30;99.90;;;;;;4922696;29;21017;-96
2021/08/06 03:20:09;;;;;;;2.50;1.27;;;16.30;99.90;;;;;;4923335;29;20619;-95
2021/08/06 03:22:37;;;;;;;5.70;1.40;;;16.30;99.90;;;;;;4927450;29;20639;-96
2021/08/06 03:25:06;;;;;;;1.70;1.60;;;16.30;99.90;;;;;;4926357;29;21255;-96
2021/08/06 03:27:34;;;;;;;1.70;1.60;;;16.30;99.90;;;;;;4925520;29;20641;-94
2021/08/06 03:30:00;;;;;;;3.27;1.77;;;16.30;99.90;;;;;;4925538;29;20663;-96
2021/08/06 03:32:27;;;;;;;2.73;1.80;;;16.30;99.90;;;;;;4929421;29;20647;-96
2021/08/06 03:34:54;;;;;;;2.33;1.50;;;16.30;99.90;;;;;;4921471;29;20739;-95
2021/08/06 03:37:21;;;;;;;3.10;2.00;;;16.30;99.90;;;;;;4924075;29;20628;-94
2021/08/06 03:39:48;;;;;;;3.33;1.80;;;16.30;99.90;;;;;;4928104;29;20691;-95
2021/08/06 03:42:16;;;;;;;1.50;1.40;;;16.30;99.90;;;;;;4922844;29;20636;-96
2021/08/06 03:44:43;;;;;;;7.23;1.70;;;16.30;99.90;;;;;;4924219;29;20670;-96
2021/08/06 03:47:10;;;;;;;1.53;1.43;;;16.30;99.90;;;;;;4927116;29;20638;-95
2021/08/06 03:49:37;;;;;;;1.73;1.10;;;16.30;99.90;;;;;;4935445;28;20730;-96
2021/08/06 03:52:05;;;;;;;1.80;1.70;;;16.30;99.90;;;;;;4933173;29;20759;-96
2021/08/06 03:54:32;;;;;;;2.43;1.40;;;16.20;99.90;;;;;;4923973;29;20678;-96
2021/08/06 03:56:59;;;;;;;5.37;1.77;;;16.30;99.90;;;;;;4940023;29;20670;-96
2021/08/06 03:59:30;;;;;;;1.50;1.40;;;16.20;99.90;;;;;;4936226;29;20670;-96
2021/08/06 04:01:58;;;;;;;1.50;1.40;;;16.20;99.90;;;;;;4942921;29;20631;-96
2021/08/06 04:04:27;;;;;;;3.10;1.70;;;16.30;99.90;;;;;;4936844;29;20662;-96
2021/08/06 04:06:56;;;;;;;2.13;1.40;;;16.20;99.90;;;;;;4946361;29;20679;-96
2021/08/06 04:15:02;;;;;;;1.70;1.40;;;16.20;99.90;;;;;;4939624;29;20640;-96
2021/08/06 04:17:30;;;;;;;2.53;2.10;;;16.20;99.90;;;;;;4924561;29;20646;-96
2021/08/06 04:19:57;;;;;;;4.30;2.93;;;16.20;99.90;;;;;;4921066;29;20638;-96
2021/08/06 04:22:24;;;;;;;1.90;1.70;;;16.30;99.90;;;;;;4925324;29;20639;-96
2021/08/06 04:24:51;;;;;;;1.87;1.60;;;16.30;99.90;;;;;;4915667;29;20616;-95
2021/08/06 04:27:20;;;;;;;6.50;2.10;;;16.30;99.90;;;;;;4920162;29;20727;-96
2021/08/06 04:29:47;;;;;;;1.20;1.10;;;16.30;99.90;;;;;;4923100;29;20692;-96
2021/08/06 04:32:15;;;;;;;1.80;1.70;;;16.30;99.90;;;;;;4929549;29;21504;-96
2021/08/06 04:34:42;;;;;;;1.87;1.70;;;16.30;99.90;;;;;;4923089;29;20664;-95
2021/08/06 04:37:08;;;;;;;3.20;1.47;;;16.30;99.90;;;;;;4925907;29;20645;-96
2021/08/06 04:39:35;;;;;;;1.70;1.60;;;16.30;99.90;;;;;;4927687;29;20678;-96
2021/08/06 04:42:02;;;;;;;1.97;1.50;;;16.30;99.90;;;;;;4924133;29;20635;-95
2021/08/06 04:44:32;;;;;;;1.83;1.50;;;16.40;99.90;;;;;;4917755;29;20796;-96
2021/08/06 04:46:59;;;;;;;4.27;1.67;;;16.40;99.90;;;;;;4923071;29;20655;-96
2021/08/06 04:49:27;;;;;;;2.53;1.60;;;16.40;99.90;;;;;;4919669;29;20771;-96
2021/08/06 04:51:54;;;;;;;2.27;1.57;;;16.40;99.90;;;;;;4927765;29;20640;-96
2021/08/06 04:54:21;;;;;;;2.10;1.90;;;16.40;99.90;;;;;;4928742;29;20669;-96
2021/08/06 04:56:48;;;;;;;2.27;1.40;;;16.40;99.90;;;;;;4924600;29;20808;-96
2021/08/06 04:59:22;;;;;;;1.43;1.10;;;16.40;99.90;;;;;;4929660;29;20646;-96
2021/08/06 05:01:49;;;;;;;1.70;1.60;;;16.40;99.90;;;;;;4928132;29;20670;-96
2021/08/06 05:04:16;;;;;;;2.80;1.57;;;16.40;99.90;;;;;;4924736;29;20673;-95
2021/08/06 05:06:44;;;;;;;2.60;1.43;;;16.40;99.90;;;;;;4921937;29;21182;-96
2021/08/06 05:09:11;;;;;;;2.07;1.77;;;16.40;99.90;;;;;;4925282;29;20679;-96
2021/08/06 05:11:39;;;;;;;1.50;1.37;;;16.40;99.90;;;;;;4924089;29;20691;-95
2021/08/06 05:14:06;;;;;;;4.40;2.03;;;16.40;99.90;;;;;;4927630;29;20671;-96
2021/08/06 05:16:33;;;;;;;1.40;1.30;;;16.40;99.90;;;;;;4921971;29;20634;-95
2021/08/06 05:19:00;;;;;;;1.57;1.47;;;16.40;99.90;;;;;;4925749;29;20645;-96
2021/08/06 05:21:27;;;;;;;3.50;1.80;;;16.40;99.90;;;;;;4926565;29;21193;-96
2021/08/06 05:23:55;;;;;;;2.80;1.60;;;16.40;99.90;;;;;;4922030;29;20674;-95
2021/08/06 05:26:22;;;;;;;4.30;4.10;;;16.40;99.90;;;;;;4928056;29;21021;-96
2021/08/06 05:28:49;;;;;;;3.87;3.47;;;16.40;99.90;;;;;;4928432;29;20727;-94
2021/08/06 05:31:16;;;;;;;2.50;2.30;;;16.30;99.90;;;;;;4924808;29;20623;-96
2021/08/06 05:33:43;;;;;;;4.07;2.30;;;16.30;99.90;;;;;;4921289;29;21081;-95
2021/08/06 05:36:17;;;;;;;2.40;2.20;;;16.30;99.90;;;;;;4923117;29;20712;-96
2021/08/06 05:38:44;;;;;;;2.30;2.07;;;16.30;99.90;;;;;;4918255;29;20658;-95
2021/08/06 05:41:12;;;;;;;3.07;1.90;;;16.30;99.90;;;;;;4919894;29;20826;-96
2021/08/06 05:43:39;;;;;;;4.23;2.30;;;16.30;99.90;;;;;;4923544;29;20782;-95
2021/08/06 05:46:06;;;;;;;2.67;2.00;;;16.30;99.90;;;;;;4922085;29;20647;-96
2021/08/06 05:51:13;;;;;;;2.53;2.30;;;16.30;99.90;;;;;;4983961;23;20738;-96
2021/08/06 05:53:40;;;;;;;2.80;2.33;;;16.30;99.90;;;;;;4954930;29;20710;-96
2021/08/06 05:56:08;;;;;;;3.90;1.97;;;16.30;99.90;;;;;;4941179;29;20638;-96
2021/08/06 05:58:36;;;;;;;2.30;2.10;;;16.30;99.90;;;;;;4951800;29;20817;-96
2021/08/06 06:01:11;;;;;;;4.33;2.20;;;16.30;99.90;;;;;;4938124;29;20686;-96
2021/08/06 06:03:40;;;;;;;4.50;1.90;;;16.30;99.90;;;;;;4936519;29;20641;-96
2021/08/06 06:06:09;;;;;;;3.67;2.50;;;16.30;99.90;;;;;;4942918;29;20632;-96
2021/08/06 06:08:36;;;;;;;3.60;2.00;;;16.40;99.90;;;;;;4943788;29;20632;-96
2021/08/06 06:11:04;;;;;;;3.00;2.70;;;16.40;99.90;;;;;;4935086;29;20703;-95
2021/08/06 06:13:41;;;;;;;3.40;1.83;;;16.50;99.90;;;;;;4940606;29;20715;-96
2021/08/06 06:16:08;;;;;;;2.73;2.17;;;16.50;99.90;;;;;;4944111;29;20702;-96
2021/08/06 06:18:35;;;;;;;3.60;2.40;;;16.60;99.90;;;;;;4936091;29;20639;-96
2021/08/06 06:21:03;;;;;;;2.60;1.90;;;16.70;99.90;;;;;;4931634;29;20786;-96
2021/08/06 06:23:30;;;;;;;2.23;2.00;;;16.70;99.90;;;;;;4933152;29;20647;-96
2021/08/06 06:25:57;;;;;;;2.40;2.10;;;16.80;99.90;;;;;;4936901;29;20639;-96
2021/08/06 06:28:24;;;;;;;3.60;1.83;;;16.90;99.90;;;;;;4936562;29;20738;-96
2021/08/06 06:31:02;;;;;;;3.27;2.10;;;17.00;99.90;;;;;;4949519;29;20723;-96
2021/08/06 06:33:34;;;;;;;2.40;2.17;;;17.10;99.90;;;;;;5441621;23;21669;-96
2021/08/06 06:36:01;;;;;;;3.40;2.40;;;17.20;99.90;;;;;;4958412;29;20729;-96
2021/08/06 06:38:29;;;;;;;2.30;2.10;;;17.30;99.90;;;;;;4943092;29;20759;-95
2021/08/06 06:40:57;;;;;;;2.37;2.17;;;17.30;99.90;;;;;;4949669;29;20632;-96
2021/08/06 06:43:24;;;;;;;1.70;1.60;;;17.40;99.90;;;;;;4950443;29;20667;-96
2021/08/06 06:45:51;;;;;;;3.37;1.90;;;17.50;99.90;;;;;;4947385;29;20650;-96
2021/08/06 06:48:24;;;;;;;1.70;1.60;;;17.50;99.90;;;;;;4943657;29;20674;-96
2021/08/06 06:50:51;;;;;;;1.70;1.60;;;17.70;99.90;;;;;;4944223;29;21050;-96
2021/08/06 06:53:18;;;;;;;1.67;1.40;;;17.80;99.90;;;;;;4941435;29;21100;-96
2021/08/06 06:55:45;;;;;;;1.93;1.80;;;17.90;99.90;;;;;;4938766;29;20697;-96
2021/08/06 06:58:13;;;;;;;2.67;2.00;;;18.00;99.90;;;;;;4939701;29;20697;-96
2021/08/06 07:00:40;;;;;;;4.43;1.57;;;18.10;99.90;;;;;;4943467;29;20723;-96
2021/08/06 07:03:07;;;;;;;2.17;2.00;;;18.00;99.90;;;;;;4942335;29;20659;-96
2021/08/06 07:05:36;;;;;;;2.23;1.83;;;18.10;99.90;;;;;;4939786;29;21058;-96
2021/08/06 07:08:03;;;;;;;2.00;1.40;;;18.20;99.90;;;;;;4940256;29;20701;-96
2021/08/06 07:10:39;;;;;;;3.50;2.00;;;18.20;99.90;;;;;;4939008;29;20667;-96
2021/08/06 07:26:30;;;;;;;7.13;1.33;;;18.50;99.90;;;;;;5100205;27;21147;-96
2021/08/06 07:28:57;;;;;;;1.73;1.50;;;19.00;99.90;;;;;;5064024;28;20719;-96
2021/08/06 07:31:27;;;;;;;1.40;1.30;;;19.00;99.90;;;;;;5082128;28;20653;-96
2021/08/06 07:33:56;;;;;;;1.80;1.30;;;19.20;99.90;;;;;;5085128;28;20621;-95
2021/08/06 07:36:23;;;;;;;2.90;1.37;;;19.30;99.90;;;;;;5070340;28;20659;-96
2021/08/06 07:38:50;;;;;;;3.53;1.40;;;19.30;99.90;;;;;;5064441;28;20637;-96
2021/08/06 07:41:17;;;;;;;1.50;1.40;;;19.40;99.90;;;;;;5066588;28;20647;-95
2021/08/06 07:43:46;;;;;;;1.87;1.30;;;19.50;99.90;;;;;;5056880;28;20633;-95
2021/08/06 07:46:24;;;;;;;1.77;1.17;;;19.60;99.90;;;;;;5062622;28;20672;-96
2021/08/06 07:48:51;;;;;;;1.13;1.00;;;19.60;99.90;;;;;;5060704;28;20648;-95
2021/08/06 07:51:19;;;;;;;2.00;1.03;;;19.60;99.90;;;;;;5065916;28;20625;-96
2021/08/06 07:53:57;;;;;;;1.93;0.90;;;19.70;99.90;;;;;;5066453;28;20640;-96
2021/08/06 07:56:24;;;;;;;1.20;1.10;;;19.70;99.90;;;;;;5057814;28;20630;-96
2021/08/06 07:58:54;;;;;;;1.60;1.10;;;19.70;99.90;;;;;;5077146;28;20638;-96
2021/08/06 08:01:23;;;;;;;2.10;1.23;;;19.70;99.90;;;;;;5065487;28;20665;-96
2021/08/06 08:03:55;;;;;;;1.50;1.40;;;19.70;99.90;;;;;;5066650;28;21256;-96
2021/08/06 08:06:22;;;;;;;2.43;1.60;;;19.70;99.90;;;;;;5061498;28;20629;-96
2021/08/06 08:08:48;;;;;;;4.80;1.40;;;19.70;99.90;;;;;;5057300;28;21240;-96
2021/08/06 08:11:17;;;;;;;1.50;1.17;;;19.60;99.90;;;;;;5053929;28;20732;-95
2021/08/06 08:13:44;;;;;;;3.47;1.47;;;19.40;99.90;;;;;;5053200;28;21054;-95
2021/08/06 08:16:14;;;;;;;2.00;1.40;;;19.20;99.90;;;;;;5056501;28;20687;-94
2021/08/06 08:18:42;;;;;;;1.90;1.37;;;18.90;99.90;;;;;;5057300;28;20684;-93
2021/08/06 08:21:09;;;;;;;1.47;1.10;;;18.70;99.90;;;;;;5057842;28;20664;-95
2021/08/06 08:23:37;;;;;;;1.60;1.13;;;18.60;99.90;;;;;;5056382;28;20653;-94
2021/08/06 08:26:04;;;;;;;1.43;0.60;;;18.40;99.90;;;;;;5056183;28;20701;-96
2021/08/06 08:28:32;;;;;;;1.33;0.90;;;18.30;99.90;;;;;;5047830;28;20630;-96
2021/08/06 08:31:00;;;;;;;2.50;0.90;;;18.30;99.90;;;;;;5049811;28;20672;-95
2021/08/06 08:33:29;;;;;;;1.17;0.90;;;18.20;99.90;;;;;;5048633;28;20674;-95
2021/08/06 08:35:57;;;;;;;1.77;1.00;;;18.20;99.90;;;;;;5049043;28;20678;-95
2021/08/06 08:38:24;;;;;;;1.60;1.10;;;18.10;99.90;;;;;;5045433;28;20760;-96
2021/08/06 08:40:51;;;;;;;1.03;0.60;;;18.20;99.90;;;;;;5045880;28;20634;-96
2021/08/06 08:43:18;;;;;;;0.80;0.80;;;18.30;99.90;;;;;;5042820;28;20638;-93
2021/08/06 08:45:47;;;;;;;1.63;0.60;;;18.40;99.90;;;;;;5044060;28;20653;-96
2021/08/06 08:48:16;;;;;;;0.80;0.80;;;18.60;99.90;;;;;;5044017;28;20691;-93
2021/08/06 08:50:45;;;;;;;2.87;1.10;;;18.80;99.90;;;;;;5038685;28;20669;-95
2021/08/06 08:53:13;;;;;;;2.10;0.70;;;19.00;99.90;;;;;;5036042;28;20645;-96
2021/08/06 08:55:41;;;;;;;0.50;0.50;;;19.20;99.90;;;;;;5035775;28;21234;-96
2021/08/06 08:58:08;;;;;;;1.13;0.80;;;19.40;99.90;;;;;;5051525;28;20641;-96
2021/08/06 09:00:37;;;;;;;1.53;0.80;;;19.60;99.90;;;;;;5058015;28;20672;-96
2021/08/06 09:03:07;;;;;;;1.57;0.93;;;19.80;99.90;;;;;;5145290;23;20687;-95
2021/08/06 09:05:35;;;;;;;1.03;0.50;;;20.00;99.90;;;;;;5020091;28;20788;-96
2021/08/06 09:08:20;;;;;;;0.77;0.77;;;20.20;99.90;;;;;;5012008;28;21181;-96
2021/08/06 09:10:47;;;;;;;1.43;0.80;;;20.40;99.90;;;;;;5013762;28;20670;-96
2021/08/06 09:13:14;;;;;;;2.17;1.20;;;20.60;99.90;;;;;;5013842;28;20655;-96
2021/08/06 09:15:48;;;;;;;1.50;0.90;;;20.70;99.90;;;;;;5025018;28;20663;-96
2021/08/06 09:21:22;;;;;;;1.10;0.70;;;21.00;99.90;;;;;;5006259;28;20626;-96
2021/08/06 09:23:58;;;;;;;1.63;0.53;;;21.10;99.90;;;;;;5020736;28;20659;-96
2021/08/06 09:26:40;;;;;;;0.50;0.40;;;21.20;99.90;;;;;;5016085;28;20663;-96
2021/08/06 09:29:11;;;;;;;1.80;0.80;;;21.20;99.90;;;;;;5012071;28;20643;-96
2021/08/06 09:31:41;;;;;;;2.00;0.90;;;21.20;99.90;;;;;;5018247;28;20723;-96
2021/08/06 09:34:24;;;;;;;0.70;0.60;;;21.20;99.90;;;;;;5018537;28;20634;-96
2021/08/06 09:37:06;;;;;;;1.17;0.70;;;21.20;99.90;;;;;;5018349;28;20638;-96
2021/08/06 09:39:38;;;;;;;1.10;0.70;;;21.20;99.90;;;;;;5014427;28;20738;-96
2021/08/06 09:42:06;;;;;;;2.00;0.80;;;21.20;99.90;;;;;;5017586;28;20794;-96
2021/08/06 09:44:33;;;;;;;1.00;0.80;;;21.10;99.90;;;;;;5017523;28;20623;-96
2021/08/06 09:47:17;;;;;;;1.50;1.10;;;21.10;99.90;;;;;;5018259;28;20644;-96
2021/08/06 09:49:45;;;;;;;1.00;0.80;;;21.30;99.90;;;;;;5014427;28;21192;-96
2021/08/06 09:52:31;;;;;;;1.80;1.10;;;21.20;99.90;;;;;;5017955;28;21261;-96
2021/08/06 09:55:01;;;;;;;1.03;0.80;;;21.30;99.90;;;;;;5025679;28;20704;-96
2021/08/06 09:57:28;;;;;;;1.23;1.00;;;21.50;99.90;;;;;;5023728;28;20631;-96
2021/08/06 09:59:56;;;;;;;1.57;1.00;;;21.60;99.90;;;;;;5009593;28;21067;-96
2021/08/06 10:02:25;;;;;;;2.53;0.87;;;21.80;99.90;;;;;;5015918;28;20665;-96
2021/08/06 10:05:05;;;;;;;2.43;0.97;;;21.80;99.90;;;;;;5016071;28;21249;-96
2021/08/06 10:07:33;;;;;;;1.70;1.17;;;22.00;99.90;;;;;;5017489;28;20631;-96
2021/08/06 10:10:03;;;;;;;1.77;0.90;;;22.10;99.90;;;;;;5018167;28;20658;-96
2021/08/06 10:12:30;;;;;;;1.10;0.80;;;22.20;99.90;;;;;;5017205;28;20699;-96
2021/08/06 10:14:57;;;;;;;2.40;1.10;;;22.30;99.90;;;;;;5019300;28;21185;-96
2021/08/06 10:17:24;;;;;;;1.90;0.90;;;22.50;99.90;;;;;;5025426;28;20640;-96
2021/08/06 10:19:51;;;;;;;2.10;0.80;;;22.80;99.90;;;;;;5016763;28;20635;-96
2021/08/06 10:22:19;;;;;;;1.60;0.80;;;23.00;99.90;;;;;;5015685;28;20771;-96
2021/08/06 10:24:48;;;;;;;0.93;0.67;;;23.30;99.90;;;;;;5021141;28;20726;-96
2021/08/06 10:27:20;;;;;;;1.40;0.80;;;23.50;99.90;;;;;;5016683;28;20646;-96
2021/08/06 10:29:59;;;;;;;0.70;0.70;;;23.80;99.90;;;;;;5026519;28;20962;-96
2021/08/06 10:32:28;;;;;;;5.37;1.13;;;24.10;99.90;;;;;;5019033;28;20691;-96
2021/08/06 10:35:18;;;;;;;1.30;0.67;;;24.10;99.90;;;;;;5024026;28;21165;-96
2021/08/06 10:37:59;;;;;;;0.97;0.90;;;24.00;99.90;;;;;;5014572;28;20639;-96
2021/08/06 10:41:04;;;;;;;0.80;0.77;;;24.00;99.90;;;;;;5013423;28;20668;-95
2021/08/06 10:44:06;;;;;;;2.83;0.80;;;23.90;99.90;;;;;;5022768;28;20724;-96
2021/08/06 10:47:04;;;;;;;2.37;1.10;;;23.80;99.90;;;;;;5026398;28;20659;-96
2021/08/06 10:49:32;;;;;;;2.97;1.00;;;23.80;99.90;;;;;;5022181;28;20636;-96
2021/08/06 10:52:14;;;;;;;4.27;1.57;;;23.80;99.90;;;;;;5013974;28;20750;-96
2021/08/06 10:54:42;;;;;;;1.73;1.10;;;23.80;99.90;;;;;;5020063;28;20656;-96
2021/08/06 10:57:36;;;;;;;2.37;0.90;;;23.90;99.90;;;;;;5023310;28;20644;-96
2021/08/06 11:00:06;;;;;;;2.90;0.93;;;23.80;99.90;;;;;;5023389;28;20641;-96
2021/08/06 11:02:37;;;;;;;3.50;1.20;;;23.90;99.90;;;;;;5014688;28;20713;-96
2021/08/06 11:05:29;;;;;;;1.47;1.10;;;24.00;99.90;;;;;;5013993;28;20698;-96
2021/08/06 11:07:56;;;;;;;1.40;1.07;;;24.10;99.90;;;;;;5011904;28;20631;-96
2021/08/06 11:10:54;;;;;;;2.23;0.97;;;24.00;99.90;;;;;;5018502;28;20711;-95
2021/08/06 11:13:54;;;;;;;1.40;0.80;;;24.10;99.90;;;;;;4928613;29;20655;-96
2021/08/06 11:16:23;;;;;;;1.30;0.70;;;24.10;99.90;;;;;;5012964;28;20628;-96
2021/08/06 11:18:50;;;;;;;2.47;1.20;;;23.90;99.90;;;;;;5015997;28;20660;-95
2021/08/06 11:21:19;;;;;;;1.00;0.83;;;23.60;99.90;;;;;;5023902;28;20701;-95
2021/08/06 11:23:59;;;;;;;1.47;0.77;;;23.50;99.90;;;;;;5012383;28;20659;-95
2021/08/06 11:26:25;;;;;;;1.63;0.70;;;23.30;99.90;;;;;;5013051;28;20674;-96
2021/08/06 11:28:56;;;;;;;2.13;0.70;;;23.20;99.90;;;;;;5013492;28;20639;-95
2021/08/06 11:31:25;;;;;;;2.57;1.07;;;23.20;99.90;;;;;;5017310;28;21295;-95
2021/08/06 11:33:59;;;;;;;0.70;0.57;;;23.40;99.90;;;;;;5016309;28;20663;-96
2021/08/06 11:36:26;;;;;;;2.03;1.10;;;23.60;99.90;;;;;;5018728;28;21214;-95
2021/08/06 11:38:56;;;;;;;1.00;0.80;;;23.70;99.90;;;;;;5014581;28;20646;-96
2021/08/06 11:41:23;;;;;;;1.40;0.80;;;24.00;99.90;;;;;;5019357;28;21235;-96
2021/08/06 11:43:50;;;;;;;0.80;0.50;;;24.60;99.90;;;;;;5014347;28;20671;-95
2021/08/06 11:46:17;;;;;;;1.30;0.67;;;25.10;99.80;;;;;;5016935;28;21424;-95
2021/08/06 11:48:51;;;;;;;2.50;0.97;;;25.40;98.20;;;;;;5019432;28;20631;-95
2021/08/06 11:51:18;;;;;;;0.93;0.83;;;25.20;97.50;;;;;;5020363;28;20622;-95
2021/08/06 11:53:44;;;;;;;1.80;0.70;;;25.40;98.60;;;;;;5011635;28;20665;-96
2021/08/06 11:56:14;;;;;;;1.30;0.80;;;25.70;95.60;;;;;;5013953;28;20639;-94
2021/08/06 11:58:42;;;;;;;1.80;0.90;;;25.80;95.40;;;;;;5013655;28;20637;-95
2021/08/06 12:01:16;;;;;;;1.27;0.77;;;26.20;94.70;;;;;;5015408;28;20635;-95
2021/08/06 12:03:44;;;;;;;1.73;0.90;;;26.70;94.20;;;;;;5017215;28;20663;-95
2021/08/06 12:06:15;;;;;;;2.03;1.20;;;26.80;93.60;;;;;;5014188;28;21093;-94
2021/08/06 12:08:46;;;;;;;1.90;1.10;;;26.60;93.50;;;;;;5018471;28;20666;-94
2021/08/06 12:11:15;;;;;;;1.20;1.00;;;26.30;94.10;;;;;;5016673;28;21199;-94
2021/08/06 12:13:49;;;;;;;1.47;0.60;;;25.90;95.10;;;;;;5002967;28;20655;-95
2021/08/06 12:16:17;;;;;;;2.00;0.60;;;25.60;96.30;;;;;;4997363;28;21204;-94
2021/08/06 12:18:48;;;;;;;1.70;1.03;;;25.50;96.70;;;;;;5016179;28;20645;-94
2021/08/06 12:21:19;;;;;;;0.60;0.60;;;25.20;98.10;;;;;;5016861;28;21254;-94
2021/08/06 12:23:50;;;;;;;1.83;0.80;;;24.90;98.00;;;;;;5022738;28;21432;-94
2021/08/06 12:26:23;;;;;;;1.73;0.80;;;24.70;98.00;;;;;;5015536;28;20666;-92
2021/08/06 12:28:51;;;;;;;0.87;0.70;;;24.50;98.40;;;;;;5014586;28;20703;-94
2021/08/06 12:31:21;;;;;;;2.50;0.90;;;24.70;98.40;;;;;;5002607;28;20635;-95
2021/08/06 12:34:01;;;;;;;1.00;0.73;;;24.90;98.00;;;;;;5020529;28;20717;-94
2021/08/06 12:36:29;;;;;;;1.20;0.77;;;25.60;96.40;;;;;;5016738;28;20591;-95
2021/08/06 12:39:06;;;;;;;1.17;1.00;;;26.60;94.70;;;;;;5012760;28;20690;-94
2021/08/06 12:41:34;;;;;;;1.53;0.87;;;27.50;92.90;;;;;;5020804;28;20614;-95
2021/08/06 12:44:22;;;;;;;1.17;0.77;;;28.30;91.40;;;;;;5018931;28;20670;-95
2021/08/06 12:47:05;;;;;;;2.30;0.80;;;29.10;87.30;;;;;;5014986;28;20655;-94
2021/08/06 12:49:43;;;;;;;1.10;0.80;;;29.60;83.10;;;;;;5019783;28;20641;-94
2021/08/06 12:52:16;;;;;;;3.90;0.93;;;29.70;81.10;;;;;;5010697;28;20657;-95
2021/08/06 12:54:46;;;;;;;2.60;0.90;;;30.00;79.30;;;;;;5019494;28;20645;-95
2021/08/06 12:57:14;;;;;;;1.23;0.80;;;30.40;78.00;;;;;;5015534;28;20640;-94
2021/08/06 12:59:44;;;;;;;1.50;0.90;;;30.80;76.80;;;;;;5013663;28;20618;-95
2021/08/06 13:02:21;;;;;;;4.10;2.30;;;31.20;73.90;;;;;;5011492;28;20675;-94
2021/08/06 13:04:50;;;;;;;3.13;1.00;;;31.20;72.00;;;;;;5016274;28;20659;-94
2021/08/06 13:07:26;;;;;;;0.90;0.80;;;31.60;72.10;;;;;;5018047;28;21015;-95
2021/08/06 13:09:54;;;;;;;1.57;1.47;;;32.00;70.20;;;;;;4996005;28;20628;-94
2021/08/06 13:12:21;;;;;;;2.60;1.47;;;32.40;68.30;;;;;;5013418;28;21396;-94
2021/08/06 13:14:48;;;;;;;2.50;0.80;;;32.50;66.30;;;;;;5015229;28;20626;-94
2021/08/06 13:17:18;;;;;;;3.30;1.10;;;31.70;66.30;;;;;;5016399;28;20631;-94
2021/08/06 13:19:45;;;;;;;1.10;0.80;;;31.00;67.30;;;;;;5014809;28;21226;-93
2021/08/06 13:22:14;;;;;;;1.23;1.13;;;30.10;68.60;;;;;;5017278;28;20647;-94
2021/08/06 13:24:44;;;;;;;1.93;1.27;;;29.60;70.30;;;;;;5021952;28;20689;-93
2021/08/06 13:27:12;;;;;;;1.87;1.30;;;29.40;70.60;;;;;;5013265;28;20659;-94
2021/08/06 13:29:42;;;;;;;1.40;1.10;;;30.20;70.60;;;;;;5013322;28;20717;-94
2021/08/06 13:32:10;;;;;;;3.60;1.10;;;30.80;67.50;;;;;;5020665;28;20677;-94
2021/08/06 13:34:37;;;;;;;0.97;0.77;;;31.10;68.20;;;;;;5011371;28;20619;-95
2021/08/06 13:37:06;;;;;;;2.00;0.90;;;31.40;68.50;;;;;;5015612;28;20755;-94
2021/08/06 13:39:34;;;;;;;2.13;0.63;;;31.30;66.70;;;;;;5015250;28;20626;-94
2021/08/06 13:42:05;;;;;;;1.53;0.80;;;30.70;65.70;;;;;;5013988;28;21058;-93
2021/08/06 13:44:32;;;;;;;1.20;0.90;;;30.20;65.70;;;;;;5018949;28;20623;-94
2021/08/06 13:46:59;;;;;;;1.33;0.87;;;29.60;67.00;;;;;;5014679;28;20693;-94
2021/08/06 13:49:26;;;;;;;2.73;0.80;;;29.20;67.70;;;;;;5018263;28;20612;-94
2021/08/06 13:51:52;;;;;;;2.73;1.30;;;28.80;69.60;;;;;;5018338;28;20626;-94
2021/08/06 13:54:19;;;;;;;1.10;0.77;;;28.50;72.30;;;;;;5021719;28;20639;-94
2021/08/06 13:56:46;;;;;;;0.80;0.67;;;28.10;69.70;;;;;;5011073;28;21521;-93